Time;durP1;ratioP1;P1;durP2;ratioP2;P2;SDS_P1;SDS_P2;PMS_P1;PMS_P2;Temp;Humidity;BMP_temperature;BMP_pressure;BME280_temperature;BME280_humidity;BME280_pressure;Samples;Min_cycle;Max_cycle;Signal;HPM_P1;HPM_P2
2023/12/16 00:01:18;;;;;;;18.95;11.73;;;;;;;2.72;61.49;101832.81;4451551;32;20163;-79
2023/12/16 00:03:48;;;;;;;17.23;11.50;;;;;;;2.88;61.14;101844.06;4452204;32;20176;-79
2023/12/16 00:06:19;;;;;;;19.50;12.68;;;;;;;3.20;59.94;101842.06;4452093;32;20279;-79
2023/12/16 00:08:51;;;;;;;18.35;11.90;;;;;;;2.87;60.98;101842.31;4437858;32;20175;-79
2023/12/16 00:11:20;;;;;;;20.70;12.37;;;;;;;2.87;61.17;101842.31;4452428;32;20132;-79
2023/12/16 00:13:50;;;;;;;22.73;13.07;;;;;;;2.34;62.32;101836.53;4451912;32;20179;-79
2023/12/16 00:16:18;;;;;;;18.50;12.18;;;;;;;2.62;61.79;101837.25;4451871;32;20535;-79
2023/12/16 00:18:47;;;;;;;20.00;11.60;;;;;;;2.64;61.96;101837.22;4446313;32;20168;-79
2023/12/16 00:21:17;;;;;;;17.33;10.45;;;;;;;2.80;61.38;101836.25;4452005;32;20148;-79
2023/12/16 00:23:53;;;;;;;17.80;10.40;;;;;;;2.94;60.87;101838.78;4452007;32;20168;-79
2023/12/16 00:26:25;;;;;;;15.73;10.30;;;;;;;2.99;60.54;101842.25;4451354;32;20471;-79
2023/12/16 00:28:54;;;;;;;16.98;10.15;;;;;;;2.98;60.66;101837.03;4446994;32;20159;-79
2023/12/16 00:31:24;;;;;;;14.63;9.68;;;;;;;3.23;59.87;101837.72;4452058;32;20164;-79
2023/12/16 00:33:53;;;;;;;17.60;9.20;;;;;;;3.09;60.02;101840.41;4452056;32;20176;-79
2023/12/16 00:36:22;;;;;;;13.35;9.23;;;;;;;3.17;59.80;101829.03;4451913;32;20168;-80
2023/12/16 00:38:51;;;;;;;13.93;9.30;;;;;;;3.15;59.64;101833.37;4446558;32;20149;-80
2023/12/16 00:41:22;;;;;;;16.67;10.43;;;;;;;3.36;59.23;101827.09;4452686;32;20160;-80
2023/12/16 00:43:51;;;;;;;17.20;9.35;;;;;;;3.02;60.01;101833.50;4452243;32;20163;-80
2023/12/16 00:46:20;;;;;;;15.50;10.75;;;;;;;2.84;60.94;101831.88;4451891;32;20168;-80
2023/12/16 00:48:49;;;;;;;17.87;10.43;;;;;;;3.04;60.43;101840.44;4438298;32;20439;-80
2023/12/16 00:51:20;;;;;;;15.70;10.38;;;;;;;3.01;60.47;101848.34;4452094;32;20156;-79
2023/12/16 00:53:50;;;;;;;17.35;11.20;;;;;;;2.94;60.71;101849.28;4452297;32;20535;-80
2023/12/16 00:56:26;;;;;;;17.95;11.18;;;;;;;3.02;60.51;101851.84;4452541;32;20425;-80
2023/12/16 00:58:56;;;;;;;16.37;10.38;;;;;;;2.71;61.41;101858.13;4447108;32;20183;-80
2023/12/16 01:01:26;;;;;;;16.58;11.00;;;;;;;2.61;61.93;101858.16;4452208;32;20682;-80
2023/12/16 01:03:56;;;;;;;17.48;10.73;;;;;;;2.19;63.21;101850.53;4452343;32;20179;-80
2023/12/16 01:06:29;;;;;;;18.48;10.80;;;;;;;2.86;61.53;101853.69;4450900;32;20223;-80
2023/12/16 01:08:58;;;;;;;20.33;10.98;;;;;;;2.99;61.09;101857.97;4447430;32;20156;-80
2023/12/16 01:11:29;;;;;;;18.23;11.63;;;;;;;2.91;61.45;101855.38;4451608;32;20187;-80
2023/12/16 01:13:58;;;;;;;19.58;12.63;;;;;;;2.96;61.38;101853.59;4452523;32;20167;-80
2023/12/16 01:16:27;;;;;;;18.05;11.80;;;;;;;3.02;61.39;101863.19;4451164;32;20212;-80
2023/12/16 01:18:56;;;;;;;19.10;13.48;;;;;;;2.98;61.58;101856.22;4447096;32;20176;-80
2023/12/16 01:21:26;;;;;;;22.35;11.45;;;;;;;2.82;62.35;101865.94;4451911;32;20160;-80
2023/12/16 01:23:55;;;;;;;26.17;13.25;;;;;;;2.96;62.02;101869.31;4452074;32;20591;-79
2023/12/16 01:26:24;;;;;;;19.37;12.10;;;;;;;2.73;62.59;101865.97;4451574;32;20156;-79
2023/12/16 01:28:56;;;;;;;19.73;12.88;;;;;;;2.98;62.06;101857.97;4446961;32;20163;-80
2023/12/16 01:31:25;;;;;;;19.02;11.50;;;;;;;2.87;62.33;101861.53;4452075;32;20429;-80
2023/12/16 01:33:55;;;;;;;19.50;12.02;;;;;;;3.01;61.79;101852.69;4452248;32;20156;-80
2023/12/16 01:36:25;;;;;;;18.48;11.00;;;;;;;2.82;62.39;101854.59;4451484;32;20145;-80
2023/12/16 01:38:56;;;;;;;20.20;11.68;;;;;;;2.91;62.06;101858.00;4438059;32;20160;-80
2023/12/16 01:41:25;;;;;;;18.17;11.12;;;;;;;2.92;62.05;101869.34;4438343;32;20160;-80
2023/12/16 01:43:56;;;;;;;18.55;11.65;;;;;;;2.02;64.83;101870.63;4452004;32;20152;-80
2023/12/16 01:46:29;;;;;;;20.35;12.77;;;;;;;2.19;64.84;101865.34;4451261;32;20143;-80
2023/12/16 01:48:59;;;;;;;19.12;14.40;;;;;;;2.09;64.80;101868.84;4438031;32;20191;-80
2023/12/16 01:51:29;;;;;;;22.67;13.40;;;;;;;2.17;64.47;101867.06;4437946;32;20535;-80
2023/12/16 01:53:59;;;;;;;21.85;13.27;;;;;;;2.09;64.23;101866.22;4452184;32;20177;-80
2023/12/16 01:56:30;;;;;;;20.55;13.02;;;;;;;2.32;63.34;101871.41;4451208;32;20175;-80
2023/12/16 01:59:01;;;;;;;20.85;11.65;;;;;;;2.38;63.17;101874.00;4447465;32;20160;-80
2023/12/16 02:01:30;;;;;;;18.02;11.25;;;;;;;2.09;63.79;101881.91;4452121;32;20206;-80
2023/12/16 02:04:00;;;;;;;19.55;11.15;;;;;;;1.52;65.76;101886.38;4452146;32;20156;-80
2023/12/16 02:06:30;;;;;;;22.45;13.93;;;;;;;2.01;64.34;101874.09;4450953;32;20150;-80
2023/12/16 02:08:59;;;;;;;20.42;12.60;;;;;;;2.22;63.35;101871.44;4447355;32;20148;-80
2023/12/16 02:11:29;;;;;;;19.50;12.35;;;;;;;2.26;63.14;101866.16;4452374;32;20184;-80
2023/12/16 02:13:58;;;;;;;22.15;12.43;;;;;;;2.44;62.75;101868.72;4452330;32;20214;-80
2023/12/16 02:16:31;;;;;;;24.12;13.90;;;;;;;2.52;62.44;101861.72;4451180;32;20155;-80
2023/12/16 02:19:11;;;;;;;19.65;11.98;;;;;;;2.48;62.41;101875.69;4438458;32;20155;-80
2023/12/16 02:21:41;;;;;;;17.85;11.07;;;;;;;2.56;61.99;101879.12;4454073;32;20168;-80
2023/12/16 02:24:11;;;;;;;18.30;12.18;;;;;;;2.41;62.52;101893.16;4453601;32;20180;-80
2023/12/16 02:26:40;;;;;;;16.50;10.63;;;;;;;2.47;62.31;101893.12;4450411;32;20147;-80
2023/12/16 02:29:09;;;;;;;19.35;11.80;;;;;;;2.72;61.32;101899.13;4448096;32;20188;-80
2023/12/16 02:31:38;;;;;;;15.48;11.45;;;;;;;2.69;61.27;101899.16;4452065;32;20144;-80
2023/12/16 02:34:08;;;;;;;19.12;12.37;;;;;;;2.78;60.76;101892.13;4437657;32;20632;-80
2023/12/16 02:36:39;;;;;;;19.95;13.27;;;;;;;2.71;60.92;101900.00;4450634;32;20453;-80
2023/12/16 02:39:09;;;;;;;23.48;13.43;;;;;;;2.43;61.81;101888.78;4449251;32;20152;-80
2023/12/16 02:41:39;;;;;;;18.30;11.85;;;;;;;2.51;61.73;101891.37;4452462;32;20128;-80
2023/12/16 02:44:08;;;;;;;22.33;11.88;;;;;;;2.29;62.40;101890.56;4452028;32;20183;-80
2023/12/16 02:46:43;;;;;;;23.52;11.07;;;;;;;2.29;62.48;101892.31;4450218;32;20175;-80
2023/12/16 02:49:13;;;;;;;19.52;12.95;;;;;;;2.27;62.43;101907.16;4438736;32;20176;-80
2023/12/16 02:51:42;;;;;;;20.90;12.13;;;;;;;2.28;62.47;101912.38;4453230;32;20156;-80
2023/12/16 02:54:12;;;;;;;16.95;11.52;;;;;;;1.94;63.16;101922.03;4452368;32;20167;-80
2023/12/16 02:56:42;;;;;;;20.98;13.18;;;;;;;1.89;63.50;101921.19;4449598;32;20159;-80
2023/12/16 02:59:11;;;;;;;22.17;11.90;;;;;;;2.18;62.85;101929.88;4447758;32;20778;-80
2023/12/16 03:01:44;;;;;;;20.80;12.18;;;;;;;2.24;62.56;101933.31;4451349;32;20160;-80
2023/12/16 03:04:14;;;;;;;19.30;12.50;;;;;;;2.07;63.17;101926.41;4450996;32;20163;-80
2023/12/16 03:06:43;;;;;;;20.05;11.93;;;;;;;2.45;61.86;101925.41;4448289;32;20171;-79
2023/12/16 03:09:13;;;;;;;19.60;11.38;;;;;;;2.07;62.71;101926.41;4447794;32;20152;-79
2023/12/16 03:11:44;;;;;;;19.98;12.13;;;;;;;1.98;63.13;101934.25;4451226;32;20779;-79
2023/12/16 03:14:13;;;;;;;16.25;11.00;;;;;;;2.14;62.72;101938.59;4450481;32;20176;-79
2023/12/16 03:16:45;;;;;;;22.83;12.27;;;;;;;2.21;62.51;101945.53;4448169;32;20175;-79
2023/12/16 03:19:18;;;;;;;18.55;11.40;;;;;;;2.06;62.91;101947.28;4448441;32;20160;-79
2023/12/16 03:21:47;;;;;;;20.52;10.77;;;;;;;2.12;62.76;101942.94;4451137;32;20155;-79
2023/12/16 03:24:17;;;;;;;22.00;11.65;;;;;;;2.10;62.69;101936.84;4451057;32;20449;-79
2023/12/16 03:26:47;;;;;;;20.65;13.40;;;;;;;2.08;62.91;101933.34;4447659;32;20156;-79
2023/12/16 03:29:16;;;;;;;17.40;11.43;;;;;;;2.26;62.69;101942.94;4447961;32;20144;-79
2023/12/16 03:31:49;;;;;;;18.87;11.82;;;;;;;1.83;63.68;101948.22;4450212;32;20168;-79
2023/12/16 03:34:18;;;;;;;16.77;10.32;;;;;;;2.22;62.68;101947.28;4450242;32;20147;-79
2023/12/16 03:36:47;;;;;;;16.15;11.63;;;;;;;2.12;62.60;101944.69;4449298;32;20167;-79
2023/12/16 03:39:16;;;;;;;25.10;11.75;;;;;;;2.24;62.57;101951.63;4449478;32;20156;-79
2023/12/16 03:41:51;;;;;;;18.70;11.88;;;;;;;2.47;61.81;101957.69;4438443;32;20184;-79
2023/12/16 03:44:20;;;;;;;16.45;12.20;;;;;;;2.40;61.65;101951.59;4452636;32;20501;-79
2023/12/16 03:46:58;;;;;;;21.08;13.18;;;;;;;2.36;61.73;101968.16;4448123;32;20179;-79
2023/12/16 03:49:28;;;;;;;17.42;12.70;;;;;;;1.92;63.38;101973.47;4451337;32;20433;-80
2023/12/16 03:52:05;;;;;;;16.92;10.68;;;;;;;2.15;62.70;101971.72;4452893;32;20168;-79
2023/12/16 03:54:36;;;;;;;18.30;11.82;;;;;;;2.15;62.57;101966.47;4452639;32;20531;-79
2023/12/16 03:57:07;;;;;;;21.08;12.32;;;;;;;1.97;63.03;101971.72;4447406;32;20165;-79
2023/12/16 03:59:38;;;;;;;17.60;11.85;;;;;;;2.10;62.92;101976.09;4452176;32;20156;-79
2023/12/16 04:02:13;;;;;;;21.83;13.27;;;;;;;2.14;62.88;101980.44;4452362;32;20160;-79
2023/12/16 04:04:44;;;;;;;18.45;12.52;;;;;;;2.08;63.06;101976.94;4452126;32;20152;-79
2023/12/16 04:07:13;;;;;;;20.15;12.43;;;;;;;2.21;62.61;101982.13;4446260;32;20176;-79
2023/12/16 04:09:42;;;;;;;20.88;12.37;;;;;;;2.40;61.87;101975.13;4451936;32;20188;-79
2023/12/16 04:12:20;;;;;;;19.10;13.07;;;;;;;2.19;62.77;101973.44;4451986;32;20188;-79
2023/12/16 04:14:49;;;;;;;21.90;13.23;;;;;;;1.83;63.80;101989.16;4451990;32;20176;-79
2023/12/16 04:17:18;;;;;;;22.60;12.93;;;;;;;2.15;63.13;101986.53;4446680;32;20160;-80
2023/12/16 04:19:51;;;;;;;19.17;13.23;;;;;;;2.21;63.08;101987.38;4452663;32;20429;-80
2023/12/16 04:22:22;;;;;;;24.42;13.30;;;;;;;2.10;63.47;101993.47;4453250;32;20478;-79
2023/12/16 04:24:58;;;;;;;21.40;14.48;;;;;;;2.14;63.48;101996.13;4453333;32;20798;-79
2023/12/16 04:27:29;;;;;;;20.37;13.80;;;;;;;1.88;64.45;101997.88;4445465;32;20168;-79
2023/12/16 04:29:59;;;;;;;21.12;13.73;;;;;;;2.14;63.74;102003.09;4452209;32;20160;-79
2023/12/16 04:32:28;;;;;;;20.90;12.88;;;;;;;1.93;64.39;102007.44;4452630;32;20131;-79
2023/12/16 04:34:57;;;;;;;19.83;13.32;;;;;;;1.81;64.64;102003.97;4451992;32;20465;-79
2023/12/16 04:37:27;;;;;;;20.20;13.70;;;;;;;2.09;64.06;102008.31;4445627;32;20171;-79
2023/12/16 04:39:56;;;;;;;21.77;13.32;;;;;;;1.94;63.71;102008.31;4452009;32;20194;-79
2023/12/16 04:42:26;;;;;;;22.87;12.88;;;;;;;1.01;66.92;102013.37;4451949;32;20443;-79
2023/12/16 04:44:56;;;;;;;21.80;13.02;;;;;;;1.45;65.81;102016.09;4451857;32;20148;-79
2023/12/16 04:47:29;;;;;;;20.27;12.80;;;;;;;1.78;64.33;102017.88;4445948;32;20161;-79
2023/12/16 04:49:58;;;;;;;19.55;13.10;;;;;;;1.81;64.05;102017.03;4451809;32;20230;-79
2023/12/16 04:52:28;;;;;;;23.25;12.80;;;;;;;1.87;64.10;102027.50;4452016;32;20156;-79
2023/12/16 04:54:57;;;;;;;21.23;12.45;;;;;;;1.89;64.03;102015.28;4451854;32;20151;-79
2023/12/16 04:57:26;;;;;;;20.12;13.38;;;;;;;1.78;64.34;102024.88;4445260;32;20157;-79
2023/12/16 04:59:57;;;;;;;22.75;14.18;;;;;;;1.83;64.04;102017.91;4451700;32;20183;-79
2023/12/16 05:02:29;;;;;;;24.27;13.35;;;;;;;1.76;64.56;102021.38;4452105;32;20160;-79
2023/12/16 05:04:58;;;;;;;23.52;14.75;;;;;;;1.68;64.80;102021.38;4451677;32;20430;-79
2023/12/16 05:07:27;;;;;;;19.87;13.45;;;;;;;1.77;64.38;102025.75;4445200;32;20448;-78
2023/12/16 05:09:57;;;;;;;23.15;14.13;;;;;;;1.80;64.28;102016.16;4451498;32;20159;-79
2023/12/16 05:12:27;;;;;;;26.02;13.93;;;;;;;1.72;64.33;102021.38;4451620;32;20430;-79
2023/12/16 05:15:07;;;;;;;23.87;15.10;;;;;;;2.02;63.24;102024.00;4451440;32;20259;-79
2023/12/16 05:17:36;;;;;;;37.42;20.77;;;;;;;1.94;63.70;102031.84;4445763;32;20183;-79
2023/12/16 05:20:07;;;;;;;23.33;15.30;;;;;;;1.46;64.79;102029.16;4451436;32;20164;-79
2023/12/16 05:22:38;;;;;;;22.90;13.90;;;;;;;1.61;64.20;102035.31;4451524;32;20532;-79
2023/12/16 05:25:08;;;;;;;22.33;14.18;;;;;;;1.06;65.66;102043.84;4451423;32;20190;-79
2023/12/16 05:27:37;;;;;;;21.27;13.70;;;;;;;1.54;64.36;102044.00;4445205;32;20163;-79
2023/12/16 05:30:09;;;;;;;16.60;11.43;;;;;;;1.47;64.06;102046.59;4451465;32;20156;-79
2023/12/16 05:32:43;;;;;;;18.10;12.18;;;;;;;1.56;63.80;102053.59;4451989;32;20186;-79
2023/12/16 05:35:12;;;;;;;21.25;11.30;;;;;;;1.41;64.06;102057.03;4450996;32;20560;-79
2023/12/16 05:37:41;;;;;;;18.73;11.70;;;;;;;1.34;64.58;102046.53;4445012;32;20634;-79
2023/12/16 05:40:11;;;;;;;25.35;13.57;;;;;;;1.13;65.53;102060.41;4451237;32;20155;-79
2023/12/16 05:42:41;;;;;;;24.33;14.05;;;;;;;1.05;65.74;102062.12;4451369;32;20151;-79
2023/12/16 05:45:13;;;;;;;27.55;14.48;;;;;;;0.70;67.39;102062.81;4451325;32;20160;-79
2023/12/16 05:47:44;;;;;;;23.98;13.82;;;;;;;1.05;66.71;102055.16;4445719;32;20439;-79
2023/12/16 05:50:14;;;;;;;24.45;14.27;;;;;;;0.94;67.10;102062.94;4451041;32;20208;-79
2023/12/16 05:52:43;;;;;;;23.05;13.88;;;;;;;1.42;65.70;102063.13;4451248;32;20175;-79
2023/12/16 05:55:12;;;;;;;23.58;14.75;;;;;;;1.52;65.34;102061.41;4451315;32;20168;-79
2023/12/16 05:57:41;;;;;;;19.77;12.55;;;;;;;1.52;65.35;102062.28;4444289;32;20172;-79
2023/12/16 06:00:13;;;;;;;22.17;13.30;;;;;;;1.79;64.63;102052.78;4451200;32;20195;-80
2023/12/16 06:02:45;;;;;;;35.38;19.80;;;;;;;1.82;64.02;102050.13;4451642;32;20163;-79
2023/12/16 06:05:16;;;;;;;38.10;17.33;;;;;;;1.21;65.94;102064.78;4450993;32;20424;-79
2023/12/16 06:07:48;;;;;;;25.92;14.60;;;;;;;1.60;64.42;102063.19;4445129;32;20175;-80
2023/12/16 06:10:17;;;;;;;27.58;16.95;;;;;;;1.63;64.07;102064.94;4451618;32;20195;-80
2023/12/16 06:12:47;;;;;;;21.62;14.77;;;;;;;1.76;63.65;102071.06;4451424;32;20167;-80
2023/12/16 06:15:18;;;;;;;22.85;14.00;;;;;;;1.49;64.16;102072.72;4451140;32;20152;-80
2023/12/16 06:17:50;;;;;;;21.50;11.25;;;;;;;1.34;64.77;102075.28;4444865;32;20152;-81
2023/12/16 06:20:20;;;;;;;27.33;14.65;;;;;;;1.19;64.96;102083.94;4451333;32;20275;-80
2023/12/16 06:22:50;;;;;;;24.05;13.05;;;;;;;1.26;64.93;102083.09;4450983;32;20441;-80
2023/12/16 06:25:19;;;;;;;24.58;14.18;;;;;;;1.56;63.96;102084.06;4450696;32;20524;-79
2023/12/16 06:27:48;;;;;;;21.17;14.10;;;;;;;1.64;63.95;102075.38;4444484;32;20148;-80
2023/12/16 06:30:18;;;;;;;22.95;13.70;;;;;;;1.39;64.62;102079.66;4450850;32;20172;-80
2023/12/16 06:32:51;;;;;;;20.02;13.20;;;;;;;1.50;64.98;102076.19;4451003;32;20144;-79
2023/12/16 06:35:20;;;;;;;21.23;13.00;;;;;;;1.23;66.12;102081.34;4451041;32;20302;-80
2023/12/16 06:37:50;;;;;;;25.23;13.15;;;;;;;1.43;65.75;102077.94;4444730;32;20167;-80
2023/12/16 06:40:19;;;;;;;21.70;12.80;;;;;;;1.82;64.72;102084.13;4450640;32;20186;-80
2023/12/16 06:42:48;;;;;;;19.77;13.05;;;;;;;1.68;64.97;102090.19;4450735;32;20144;-80
2023/12/16 06:45:20;;;;;;;20.27;13.38;;;;;;;1.71;65.26;102084.13;4450746;32;20251;-80
2023/12/16 06:47:52;;;;;;;19.77;12.37;;;;;;;2.24;65.01;102082.41;4444307;32;20168;-80
2023/12/16 06:50:21;;;;;;;20.05;13.13;;;;;;;2.55;63.61;102092.00;4450926;32;20456;-80
2023/12/16 06:52:50;;;;;;;20.48;12.63;;;;;;;3.12;61.77;102092.72;4450663;32;20349;-80
2023/12/16 06:55:20;;;;;;;20.58;13.20;;;;;;;3.30;59.85;102094.41;4450573;32;20136;-80
2023/12/16 06:57:49;;;;;;;18.52;12.30;;;;;;;3.05;60.20;102093.66;4444043;32;20172;-80
2023/12/16 07:00:20;;;;;;;20.65;12.70;;;;;;;2.66;61.67;102099.84;4450398;32;20160;-80
2023/12/16 07:02:49;;;;;;;31.77;17.67;;;;;;;2.57;61.99;102115.53;4450354;32;20172;-80
2023/12/16 07:05:20;;;;;;;33.70;20.00;;;;;;;2.37;62.84;102116.41;4450718;32;20169;-80
2023/12/16 07:07:50;;;;;;;33.30;20.02;;;;;;;2.21;63.54;102122.50;4444321;32;20211;-80
2023/12/16 07:10:19;;;;;;;30.10;17.37;;;;;;;2.45;63.06;102117.31;4451030;32;20150;-80
2023/12/16 07:12:48;;;;;;;44.78;23.58;;;;;;;2.37;63.49;102121.66;4452475;32;20532;-80
2023/12/16 07:15:18;;;;;;;36.20;22.05;;;;;;;2.53;63.22;102119.03;4452388;32;20164;-80
2023/12/16 07:17:56;;;;;;;48.22;18.80;;;;;;;2.53;62.94;102117.28;4446057;32;20156;-80
2023/12/16 07:20:25;;;;;;;30.27;15.82;;;;;;;2.46;63.61;102128.66;4452525;32;20207;-80
2023/12/16 07:22:55;;;;;;;30.62;19.08;;;;;;;2.22;64.40;102134.75;4452500;32;20164;-80
2023/12/16 07:25:24;;;;;;;25.73;15.63;;;;;;;2.54;63.44;102144.34;4452471;32;20160;-80
2023/12/16 07:27:59;;;;;;;22.08;14.80;;;;;;;2.45;63.65;102153.03;4445973;32;20164;-80
2023/12/16 07:30:29;;;;;;;79.97;40.47;;;;;;;2.27;64.34;102150.44;4452415;32;20147;-80
2023/12/16 07:33:11;;;;;;;61.30;40.55;;;;;;;2.45;64.09;102143.47;4452367;32;20163;-80
2023/12/16 07:35:47;;;;;;;278.58;116.28;;;;;;;2.58;63.66;102143.47;4452703;32;20165;-80
2023/12/16 07:38:17;;;;;;;553.40;267.50;;;;;;;2.81;62.90;102144.31;4445999;32;20160;-80
2023/12/16 07:40:46;;;;;;;326.30;146.48;;;;;;;2.65;63.60;102143.47;4452375;32;20192;-80
2023/12/16 07:43:16;;;;;;;59.58;43.35;;;;;;;2.84;63.31;102140.81;4452460;32;20163;-80
2023/12/16 07:45:45;;;;;;;43.63;30.95;;;;;;;3.08;62.66;102139.88;4452825;32;20779;-80
2023/12/16 07:48:15;;;;;;;42.03;30.55;;;;;;;3.58;61.92;102131.84;4446235;32;20160;-80
2023/12/16 07:50:45;;;;;;;28.98;23.05;;;;;;;4.26;59.87;102134.06;4452273;32;20159;-79
2023/12/16 07:53:15;;;;;;;26.67;21.23;;;;;;;5.10;58.03;102131.53;4453432;32;20179;-80
2023/12/16 07:55:44;;;;;;;24.00;16.27;;;;;;;5.82;55.58;102130.66;4452958;32;20226;-80
2023/12/16 07:58:14;;;;;;;26.20;15.85;;;;;;;6.72;53.92;102131.00;4437873;32;20175;-80
2023/12/16 08:00:44;;;;;;;22.13;16.27;;;;;;;7.53;51.72;102129.44;4452339;32;20175;-79
2023/12/16 08:03:18;;;;;;;20.23;15.30;;;;;;;8.04;49.54;102131.84;4452131;32;20176;-80
2023/12/16 08:05:48;;;;;;;21.77;15.27;;;;;;;9.18;46.87;102128.97;4452132;32;20198;-80
2023/12/16 08:08:17;;;;;;;22.27;13.45;;;;;;;9.86;44.26;102126.09;4446290;32;20203;-80
2023/12/16 08:10:47;;;;;;;20.95;14.15;;;;;;;10.69;42.53;102132.25;4452309;32;20713;-80
2023/12/16 08:13:16;;;;;;;21.30;14.43;;;;;;;11.11;41.68;102120.19;4452136;32;20164;-79
2023/12/16 08:15:45;;;;;;;21.17;15.30;;;;;;;11.68;40.77;102110.94;4437898;32;20151;-78
2023/12/16 08:18:15;;;;;;;19.23;14.57;;;;;;;11.95;39.48;102107.25;4445521;32;20168;-78
2023/12/16 08:20:51;;;;;;;21.60;13.73;;;;;;;12.60;38.62;102121.44;4451363;32;20159;-77
2023/12/16 08:23:20;;;;;;;22.30;15.07;;;;;;;12.70;38.09;102124.56;4452130;32;20176;-77
2023/12/16 08:25:49;;;;;;;21.00;15.30;;;;;;;12.83;38.51;102124.87;4451640;32;20194;-77
2023/12/16 08:28:18;;;;;;;22.27;14.63;;;;;;;12.93;38.17;102126.22;4445190;32;20168;-77
2023/12/16 08:30:49;;;;;;;24.87;14.65;;;;;;;13.51;37.45;102124.50;4451767;32;20203;-77
2023/12/16 08:33:22;;;;;;;16.65;11.93;;;;;;;13.22;37.96;102123.12;4451505;32;20144;-76
2023/12/16 08:35:52;;;;;;;;;;;;;;;14.09;36.50;102126.19;4452290;32;20152;-76
2023/12/16 08:38:23;;;;;;;15.52;12.27;;;;;;;14.26;35.97;102130.72;4445867;32;20047;-76
2023/12/16 08:40:55;;;;;;;19.87;13.43;;;;;;;14.12;36.15;102127.88;4451534;32;20528;-76
2023/12/16 08:43:25;;;;;;;21.30;13.82;;;;;;;14.06;35.79;102138.84;4452016;32;20429;-76
2023/12/16 08:45:54;;;;;;;19.48;13.05;;;;;;;14.18;35.85;102130.25;4452023;32;20461;-76
2023/12/16 08:48:26;;;;;;;20.00;13.40;;;;;;;14.28;35.70;102129.69;4446229;32;20175;-76
2023/12/16 08:50:57;;;;;;;;;;;;;;;14.09;36.18;102130.66;4453191;32;20457;-76
2023/12/16 08:53:27;;;;;;;19.17;12.93;;;;;;;13.26;37.62;102143.41;4452797;32;20020;-76
2023/12/16 08:55:57;;;;;;;16.90;12.82;;;;;;;13.87;37.24;102130.84;4453460;32;20279;-76
2023/12/16 08:58:26;;;;;;;19.42;13.40;;;;;;;13.48;37.53;102137.97;4448627;32;20164;-76
2023/12/16 09:00:57;;;;;;;17.75;13.38;;;;;;;13.89;37.02;102129.81;4454973;32;20156;-75
2023/12/16 09:03:27;;;;;;;17.23;14.32;;;;;;;14.07;36.84;102130.75;4455223;32;20167;-76
2023/12/16 09:05:57;;;;;;;18.55;13.15;;;;;;;13.95;37.08;102128.69;4454797;32;20520;-76
2023/12/16 09:08:26;;;;;;;19.17;14.18;;;;;;;13.83;37.56;102123.94;4448355;32;20151;-76
2023/12/16 09:10:56;;;;;;;19.52;13.93;;;;;;;13.59;37.90;102120.63;4453975;32;20124;-75
2023/12/16 09:13:25;;;;;;;17.27;12.55;;;;;;;13.36;38.35;102127.88;4454080;32;20171;-75
2023/12/16 09:15:54;;;;;;;18.37;13.50;;;;;;;13.14;39.05;102125.25;4453306;32;20224;-75
2023/12/16 09:18:26;;;;;;;19.75;14.10;;;;;;;13.17;39.08;102122.47;4446514;32;20167;-76
2023/12/16 09:20:57;;;;;;;19.33;13.82;;;;;;;13.47;38.70;102122.94;4443966;32;20450;-76
2023/12/16 09:23:26;;;;;;;17.12;12.37;;;;;;;14.06;37.58;102121.03;4437815;32;20173;-76
2023/12/16 09:25:55;;;;;;;27.52;16.20;;;;;;;13.94;37.55;102109.16;4437241;32;20140;-76
2023/12/16 09:28:24;;;;;;;21.33;14.13;;;;;;;14.24;37.30;102109.47;4436890;32;20200;-76
2023/12/16 09:30:55;;;;;;;18.23;13.13;;;;;;;14.41;37.25;102113.97;4422696;32;20477;-76
2023/12/16 09:33:27;;;;;;;20.02;14.57;;;;;;;14.52;37.10;102116.12;4435890;32;20183;-76
2023/12/16 09:35:58;;;;;;;29.25;21.15;;;;;;;14.11;37.60;102124.34;4445215;32;20780;-76
2023/12/16 09:38:27;;;;;;;29.92;20.02;;;;;;;13.91;38.05;102117.31;4446031;32;20144;-76
2023/12/16 09:40:57;;;;;;;20.65;16.17;;;;;;;14.04;38.16;102109.56;4452000;32;20175;-76
2023/12/16 09:43:28;;;;;;;19.30;15.20;;;;;;;14.37;37.89;102109.72;4451804;32;20182;-76
2023/12/16 09:45:57;;;;;;;18.95;14.35;;;;;;;14.68;37.42;102110.84;4451520;32;20152;-76
2023/12/16 09:48:31;;;;;;;18.37;15.15;;;;;;;15.28;36.31;102107.72;4437039;32;20160;-76
2023/12/16 09:51:02;;;;;;;18.92;12.80;;;;;;;15.30;36.02;102117.38;4451298;32;20180;-76
2023/12/16 09:53:31;;;;;;;16.35;11.40;;;;;;;15.34;36.22;102104.72;4451540;32;20176;-76
2023/12/16 09:56:01;;;;;;;18.05;12.10;;;;;;;14.83;36.64;102115.41;4451219;32;20464;-76
2023/12/16 09:58:34;;;;;;;16.12;11.68;;;;;;;14.44;37.62;102119.13;4444880;32;20159;-76
2023/12/16 10:01:05;;;;;;;14.50;11.10;;;;;;;13.64;38.99;102115.94;4450970;32;20164;-76
2023/12/16 10:03:39;;;;;;;15.50;11.48;;;;;;;12.62;40.85;102119.56;4451135;32;20147;-76
2023/12/16 10:06:09;;;;;;;18.55;12.98;;;;;;;11.79;42.85;102122.03;4451030;32;20148;-76
2023/12/16 10:08:40;;;;;;;17.35;11.57;;;;;;;11.75;43.79;102115.09;4445402;32;20416;-76
2023/12/16 10:11:09;;;;;;;18.05;13.80;;;;;;;12.21;43.04;102111.53;4450878;32;20175;-76
2023/12/16 10:14:03;;;;;;;16.08;12.57;;;;;;;12.37;43.31;102118.88;4451030;32;20164;-76
2023/12/16 10:16:34;;;;;;;16.35;11.80;;;;;;;13.05;41.97;102115.91;4449310;32;20160;-76
2023/12/16 10:19:04;;;;;;;17.15;12.02;;;;;;;13.31;41.00;102111.25;4446927;32;20176;-76
2023/12/16 10:21:35;;;;;;;16.62;11.73;;;;;;;13.82;40.34;102103.53;4450752;32;20178;-76
2023/12/16 10:24:05;;;;;;;17.10;12.50;;;;;;;14.05;39.50;102094.44;4450864;32;20232;-76
2023/12/16 10:26:42;;;;;;;19.15;12.75;;;;;;;14.09;39.72;102099.53;4449406;32;20148;-76
2023/12/16 10:29:12;;;;;;;18.50;12.82;;;;;;;14.11;39.79;102096.81;4447321;32;20176;-76
2023/12/16 10:31:41;;;;;;;19.35;13.43;;;;;;;14.12;39.71;102087.87;4450769;32;20325;-76
2023/12/16 10:34:12;;;;;;;14.98;11.48;;;;;;;13.61;40.48;102094.78;4450905;32;20152;-76
2023/12/16 10:36:43;;;;;;;17.05;11.93;;;;;;;12.92;41.42;102101.41;4448154;32;20160;-76
2023/12/16 10:39:14;;;;;;;17.45;10.38;;;;;;;13.51;41.17;102087.22;4436232;32;20156;-76
2023/12/16 10:41:43;;;;;;;14.85;10.68;;;;;;;13.59;40.39;102084.19;4450779;32;20155;-76
2023/12/16 10:44:12;;;;;;;15.27;13.55;;;;;;;13.98;40.01;102084.09;4451105;32;20168;-76
2023/12/16 10:46:46;;;;;;;16.73;12.52;;;;;;;13.93;39.80;102080.78;4450085;32;20159;-76
2023/12/16 10:49:18;;;;;;;15.73;12.27;;;;;;;13.85;40.07;102090.94;4449418;32;20163;-76
2023/12/16 10:51:56;;;;;;;14.98;11.65;;;;;;;14.30;39.51;102091.44;4452434;32;20435;-76
2023/12/16 10:57:17;;;;;;;14.30;10.63;;;;;;;14.14;39.49;102081.53;4414058;31;2461463;-77
2023/12/16 10:59:55;;;;;;;13.48;9.57;;;;;;;13.81;40.04;102083.16;4447622;32;20144;-77
2023/12/16 11:02:28;;;;;;;15.25;11.05;;;;;;;13.54;40.10;102080.87;4463235;32;20140;-77
2023/12/16 11:05:08;;;;;;;14.63;10.95;;;;;;;13.56;40.35;102083.47;4462283;32;20471;-77
2023/12/16 11:07:39;;;;;;;15.70;11.60;;;;;;;13.40;41.05;102084.19;4447470;32;20175;-77
2023/12/16 11:10:09;;;;;;;15.65;12.05;;;;;;;13.39;40.96;102073.63;4447325;32;20176;-77
2023/12/16 11:12:41;;;;;;;17.60;11.95;;;;;;;13.49;40.58;102077.56;4447172;32;20458;-77
2023/12/16 11:15:12;;;;;;;15.77;13.25;;;;;;;13.41;41.25;102077.91;4442219;32;20168;-76
2023/12/16 11:17:47;;;;;;;15.30;12.15;;;;;;;13.73;40.32;102072.88;4446515;32;20662;-77
2023/12/16 11:20:18;;;;;;;18.75;13.52;;;;;;;13.67;40.48;102070.53;4447130;32;20211;-77
2023/12/16 11:22:51;;;;;;;13.75;10.35;;;;;;;13.65;40.74;102064.37;4445898;32;20151;-77
2023/12/16 11:25:21;;;;;;;17.23;12.13;;;;;;;13.05;41.19;102056.47;4441263;32;20525;-77
2023/12/16 11:27:53;;;;;;;16.65;12.07;;;;;;;13.05;41.97;102069.78;4440885;32;20180;-77
2023/12/16 11:30:23;;;;;;;15.43;12.23;;;;;;;12.99;42.32;102076.28;4447117;32;20203;-77
2023/12/16 11:32:53;;;;;;;16.42;11.98;;;;;;;12.58;43.04;102082.53;4447114;32;20152;-77